Time;durP1;ratioP1;P1;durP2;ratioP2;P2;SDS_P1;SDS_P2;PMS_P1;PMS_P2;Temp;Humidity;BMP_temperature;BMP_pressure;BME280_temperature;BME280_humidity;BME280_pressure;Samples;Min_cycle;Max_cycle;Signal;HPM_P1;HPM_P2
2024/03/03 00:00:12;;;;;;;;;;;12.50;54.10;;;;;;5085384;28;20243;-59
2024/03/03 00:02:40;;;;;;;;;;;12.50;54.20;;;;;;5084255;28;19928;-59
2024/03/03 00:05:09;;;;;;;;;;;12.50;54.00;;;;;;5084125;28;19927;-57
2024/03/03 00:07:38;;;;;;;;;;;12.50;54.20;;;;;;5083426;28;20461;-58
2024/03/03 00:10:07;;;;;;;;;;;12.60;54.30;;;;;;5084660;28;20033;-59
2024/03/03 00:12:36;;;;;;;;;;;12.60;54.20;;;;;;5082312;28;20378;-61
2024/03/03 00:15:04;;;;;;;;;;;12.60;54.10;;;;;;5071107;28;19973;-58
2024/03/03 00:17:36;;;;;;;;;;;12.60;54.00;;;;;;5062385;28;20800;-56
2024/03/03 00:20:05;;;;;;;;;;;12.60;54.00;;;;;;5089253;28;20538;-60
2024/03/03 00:22:34;;;;;;;;;;;12.60;53.90;;;;;;5084712;27;19971;-60
2024/03/03 00:25:03;;;;;;;;;;;12.60;53.90;;;;;;5089959;28;20378;-60
2024/03/03 00:27:32;;;;;;;;;;;12.50;54.00;;;;;;5074205;28;19928;-59
2024/03/03 00:30:00;;;;;;;;;;;12.60;54.00;;;;;;5067934;28;19928;-59
2024/03/03 00:32:28;;;;;;;;;;;12.50;53.90;;;;;;5086802;28;19959;-58
2024/03/03 00:34:56;;;;;;;;;;;12.50;53.80;;;;;;5082256;28;19928;-59
2024/03/03 00:37:24;;;;;;;;;;;12.50;53.80;;;;;;5072740;28;19924;-59
2024/03/03 00:39:54;;;;;;;;;;;12.40;53.80;;;;;;5087040;28;19938;-59
2024/03/03 00:42:22;;;;;;;;;;;12.40;53.80;;;;;;5087639;28;19936;-58
2024/03/03 00:44:50;;;;;;;;;;;12.40;53.90;;;;;;5068139;28;19928;-56
2024/03/03 00:47:18;;;;;;;;;;;12.40;54.10;;;;;;5075089;28;20314;-60
2024/03/03 00:49:47;;;;;;;;;;;12.40;54.20;;;;;;5070563;28;19928;-58
2024/03/03 00:52:17;;;;;;;;;;;12.50;54.20;;;;;;5086656;28;19963;-59
2024/03/03 00:54:46;;;;;;;;;;;12.50;54.20;;;;;;5087625;28;20444;-60
2024/03/03 00:57:15;;;;;;;;;;;12.50;54.10;;;;;;5078838;28;20012;-59
2024/03/03 00:59:44;;;;;;;;;;;12.50;54.20;;;;;;5073109;28;20535;-59
2024/03/03 01:02:12;;;;;;;;;;;12.50;54.10;;;;;;5084574;28;19927;-57
2024/03/03 01:04:40;;;;;;;;;;;12.60;54.20;;;;;;5073949;28;19939;-58
2024/03/03 01:07:08;;;;;;;;;;;12.70;54.30;;;;;;5067138;28;20275;-58
2024/03/03 01:09:36;;;;;;;;;;;12.80;54.10;;;;;;5080253;28;19932;-60
2024/03/03 01:12:05;;;;;;;;;;;12.90;54.20;;;;;;5085565;28;20427;-59
2024/03/03 01:14:34;;;;;;;;;;;13.00;54.20;;;;;;5083522;28;19964;-61
2024/03/03 01:17:03;;;;;;;;;;;13.10;53.90;;;;;;5084325;28;19932;-60
2024/03/03 01:19:31;;;;;;;;;;;13.20;53.80;;;;;;5074816;28;19938;-60
2024/03/03 01:21:59;;;;;;;;;;;13.30;53.80;;;;;;5090786;28;20696;-59
2024/03/03 01:24:27;;;;;;;;;;;13.40;53.60;;;;;;5085895;28;19927;-58
2024/03/03 01:26:55;;;;;;;;;;;13.50;53.50;;;;;;5066091;28;19928;-60
2024/03/03 01:29:23;;;;;;;;;;;13.60;53.30;;;;;;5067892;28;19935;-58
2024/03/03 01:31:53;;;;;;;;;;;13.70;53.20;;;;;;5082224;28;19935;-58
2024/03/03 01:34:22;;;;;;;;;;;13.70;53.00;;;;;;5080952;28;19928;-58
2024/03/03 01:36:50;;;;;;;;;;;13.70;53.10;;;;;;5088911;28;20014;-58
2024/03/03 01:39:18;;;;;;;;;;;13.80;52.90;;;;;;5072703;28;20023;-59
2024/03/03 01:41:47;;;;;;;;;;;13.70;52.80;;;;;;5058957;28;20340;-56
2024/03/03 01:44:15;;;;;;;;;;;13.70;52.60;;;;;;5083005;28;19934;-59
2024/03/03 01:46:43;;;;;;;;;;;13.80;53.40;;;;;;5086830;28;20146;-58
2024/03/03 01:49:13;;;;;;;;;;;13.70;52.60;;;;;;5086208;28;20279;-58
2024/03/03 01:51:42;;;;;;;;;;;13.70;52.50;;;;;;5087558;28;19933;-60
2024/03/03 01:54:11;;;;;;;;;;;13.70;52.50;;;;;;5081868;28;19944;-58
2024/03/03 01:56:39;;;;;;;;;;;13.70;52.60;;;;;;5085039;28;19940;-58
2024/03/03 01:59:09;;;;;;;;;;;13.70;52.50;;;;;;5079801;28;20141;-57
2024/03/03 02:01:38;;;;;;;;;;;13.80;52.70;;;;;;5069061;28;19950;-59
2024/03/03 02:04:06;;;;;;;;;;;13.80;52.40;;;;;;5076784;28;20023;-59
2024/03/03 02:06:37;;;;;;;;;;;13.80;52.10;;;;;;5094366;28;19977;-60
2024/03/03 02:09:06;;;;;;;;;;;13.80;52.00;;;;;;5083667;28;20353;-60
2024/03/03 02:11:35;;;;;;;;;;;13.80;51.90;;;;;;5072504;28;20889;-60
2024/03/03 02:14:03;;;;;;;;;;;13.90;52.10;;;;;;5083156;27;19976;-59
2024/03/03 02:16:31;;;;;;;;;;;13.80;52.00;;;;;;5078394;28;19934;-58
2024/03/03 02:18:59;;;;;;;;;;;13.80;52.00;;;;;;5083373;28;19936;-58
2024/03/03 02:21:29;;;;;;;;;;;13.90;52.00;;;;;;5083354;27;19936;-58
2024/03/03 02:23:57;;;;;;;;;;;13.90;51.90;;;;;;5083307;28;19958;-57
2024/03/03 02:26:26;;;;;;;;;;;13.90;52.00;;;;;;5067792;28;19932;-63
2024/03/03 02:28:54;;;;;;;;;;;13.90;51.80;;;;;;5086489;28;19936;-58
2024/03/03 02:31:25;;;;;;;;;;;13.90;51.80;;;;;;5081332;28;19924;-59
2024/03/03 02:33:53;;;;;;;;;;;13.90;51.90;;;;;;5077007;28;19923;-59
2024/03/03 02:36:21;;;;;;;;;;;13.90;51.60;;;;;;5088949;27;19924;-60
2024/03/03 02:38:51;;;;;;;;;;;13.90;51.60;;;;;;5082300;28;19997;-63
2024/03/03 02:41:19;;;;;;;;;;;13.80;51.60;;;;;;5078819;28;20814;-60
2024/03/03 02:43:47;;;;;;;;;;;13.80;51.60;;;;;;5088539;28;20316;-59
2024/03/03 02:46:15;;;;;;;;;;;13.80;51.70;;;;;;5087336;28;19932;-60
2024/03/03 02:48:43;;;;;;;;;;;13.80;51.80;;;;;;5084121;28;19934;-59
2024/03/03 02:51:12;;;;;;;;;;;13.80;51.80;;;;;;5082566;28;20019;-56
2024/03/03 02:53:40;;;;;;;;;;;13.70;51.70;;;;;;5080281;28;19928;-61
2024/03/03 02:56:09;;;;;;;;;;;13.80;51.70;;;;;;5088703;28;20001;-58
2024/03/03 02:58:37;;;;;;;;;;;13.80;51.80;;;;;;5075999;27;19931;-59
2024/03/03 03:01:06;;;;;;;;;;;13.80;51.90;;;;;;5074439;28;20010;-59
2024/03/03 03:03:35;;;;;;;;;;;13.70;51.70;;;;;;5072655;28;19940;-58
2024/03/03 03:06:03;;;;;;;;;;;13.70;51.80;;;;;;5078584;28;19932;-57
2024/03/03 03:08:31;;;;;;;;;;;13.70;51.80;;;;;;5079762;28;19932;-58
2024/03/03 03:10:59;;;;;;;;;;;13.70;51.80;;;;;;5078773;28;19928;-59
2024/03/03 03:13:29;;;;;;;;;;;13.60;51.80;;;;;;5069657;28;19981;-58
2024/03/03 03:15:57;;;;;;;;;;;13.70;51.70;;;;;;5077306;28;19946;-58
2024/03/03 03:18:25;;;;;;;;;;;13.70;51.90;;;;;;5065078;28;20453;-57
2024/03/03 03:20:53;;;;;;;;;;;13.70;51.80;;;;;;5076330;28;19932;-59
2024/03/03 03:23:22;;;;;;;;;;;13.70;51.70;;;;;;5070245;28;19928;-59
2024/03/03 03:25:50;;;;;;;;;;;13.70;51.80;;;;;;5077569;28;20362;-59
2024/03/03 03:28:18;;;;;;;;;;;13.70;51.50;;;;;;5081464;28;20457;-58
2024/03/03 03:30:48;;;;;;;;;;;13.80;51.60;;;;;;5074373;28;20396;-57
2024/03/03 03:33:17;;;;;;;;;;;13.80;51.60;;;;;;5073507;28;19928;-58
2024/03/03 03:35:45;;;;;;;;;;;13.90;51.50;;;;;;5077129;28;19932;-60
2024/03/03 03:38:13;;;;;;;;;;;13.90;51.50;;;;;;5075693;28;20596;-57
2024/03/03 03:40:41;;;;;;;;;;;13.90;51.40;;;;;;5074347;28;19966;-57
2024/03/03 03:43:10;;;;;;;;;;;14.00;51.40;;;;;;5076547;28;21182;-55
2024/03/03 03:45:38;;;;;;;;;;;14.00;51.20;;;;;;5074294;28;20156;-58
2024/03/03 03:48:08;;;;;;;;;;;14.00;51.20;;;;;;5076610;28;20062;-58
2024/03/03 03:50:36;;;;;;;;;;;14.10;51.00;;;;;;5080390;28;19996;-58
2024/03/03 03:53:04;;;;;;;;;;;14.10;51.00;;;;;;5056264;28;19971;-57
2024/03/03 03:55:32;;;;;;;;;;;14.10;50.90;;;;;;5072245;28;22231;-58
2024/03/03 03:58:00;;;;;;;;;;;14.20;50.90;;;;;;5073999;28;19927;-59
2024/03/03 04:00:29;;;;;;;;;;;14.20;50.60;;;;;;5077406;28;19986;-57
2024/03/03 04:02:56;;;;;;;;;;;14.20;50.70;;;;;;5067139;28;19977;-58
2024/03/03 04:05:26;;;;;;;;;;;14.20;50.50;;;;;;5070486;28;19950;-60
2024/03/03 04:07:54;;;;;;;;;;;14.30;50.40;;;;;;5075035;28;19981;-61
2024/03/03 04:10:22;;;;;;;;;;;14.30;50.60;;;;;;5074730;28;19931;-58
2024/03/03 04:12:51;;;;;;;;;;;14.30;49.80;;;;;;5067655;28;19932;-58
2024/03/03 04:15:19;;;;;;;;;;;14.30;50.00;;;;;;5067657;28;19954;-59
2024/03/03 04:17:47;;;;;;;;;;;14.30;49.90;;;;;;5078471;28;19924;-59
2024/03/03 04:20:16;;;;;;;;;;;14.30;50.10;;;;;;5075224;28;19932;-58
2024/03/03 04:22:45;;;;;;;;;;;14.30;50.20;;;;;;5075883;27;19939;-57
2024/03/03 04:25:14;;;;;;;;;;;14.30;50.10;;;;;;5072277;28;19962;-59
2024/03/03 04:27:43;;;;;;;;;;;14.30;50.20;;;;;;5071739;28;19981;-59
2024/03/03 04:30:11;;;;;;;;;;;14.20;50.00;;;;;;5076322;28;19928;-59
2024/03/03 04:32:39;;;;;;;;;;;14.30;50.00;;;;;;5075059;28;20349;-59
2024/03/03 04:35:08;;;;;;;;;;;14.30;50.00;;;;;;5077815;28;19932;-59
2024/03/03 04:37:36;;;;;;;;;;;14.30;50.10;;;;;;5073918;28;19932;-59
2024/03/03 04:40:06;;;;;;;;;;;14.30;50.00;;;;;;5081116;28;19936;-58
2024/03/03 04:42:34;;;;;;;;;;;14.30;50.00;;;;;;5077577;28;19939;-59
2024/03/03 04:45:03;;;;;;;;;;;14.20;49.90;;;;;;5076960;28;20294;-59
2024/03/03 04:47:30;;;;;;;;;;;14.20;49.90;;;;;;5073511;28;19924;-60
2024/03/03 04:49:59;;;;;;;;;;;14.20;49.80;;;;;;5077668;28;20012;-59
2024/03/03 04:52:27;;;;;;;;;;;14.20;49.70;;;;;;5077959;28;20002;-60
2024/03/03 04:54:55;;;;;;;;;;;14.20;49.70;;;;;;5075044;28;19990;-58
2024/03/03 04:57:24;;;;;;;;;;;14.20;49.80;;;;;;5072494;28;19931;-60
2024/03/03 04:59:52;;;;;;;;;;;14.10;49.70;;;;;;5085497;28;19935;-59
2024/03/03 05:02:20;;;;;;;;;;;14.10;49.70;;;;;;5085712;28;19928;-60
2024/03/03 05:04:48;;;;;;;;;;;14.00;49.80;;;;;;5082708;28;19931;-59
2024/03/03 05:07:17;;;;;;;;;;;14.00;49.80;;;;;;5073636;28;20191;-59
2024/03/03 05:09:45;;;;;;;;;;;14.00;49.90;;;;;;5081221;28;20019;-56
2024/03/03 05:12:13;;;;;;;;;;;13.90;49.90;;;;;;5085613;28;20013;-59
2024/03/03 05:14:43;;;;;;;;;;;13.90;49.90;;;;;;5085800;28;19966;-59
2024/03/03 05:17:11;;;;;;;;;;;13.90;49.80;;;;;;5080186;28;19995;-58
2024/03/03 05:19:39;;;;;;;;;;;13.90;49.50;;;;;;5082707;28;19989;-60
2024/03/03 05:22:08;;;;;;;;;;;14.00;49.30;;;;;;5083819;28;19927;-59
2024/03/03 05:24:36;;;;;;;;;;;14.00;49.50;;;;;;5083071;28;20039;-58
2024/03/03 05:27:04;;;;;;;;;;;14.00;49.30;;;;;;5082965;28;20171;-59
2024/03/03 05:29:32;;;;;;;;;;;14.00;49.40;;;;;;5073183;28;19955;-59
2024/03/03 05:32:01;;;;;;;;;;;14.10;49.60;;;;;;5086697;28;19936;-59
2024/03/03 05:34:29;;;;;;;;;;;14.10;49.40;;;;;;5083792;28;19936;-60
2024/03/03 05:36:57;;;;;;;;;;;14.10;49.40;;;;;;5083937;28;19924;-60
2024/03/03 05:39:27;;;;;;;;;;;14.10;49.40;;;;;;5071434;28;19932;-61
2024/03/03 05:41:57;;;;;;;;;;;14.10;49.20;;;;;;5083917;28;19928;-59
2024/03/03 05:44:25;;;;;;;;;;;14.20;49.40;;;;;;5085288;28;20024;-59
2024/03/03 05:46:54;;;;;;;;;;;14.20;49.20;;;;;;5079269;28;19985;-58
2024/03/03 05:49:24;;;;;;;;;;;14.20;49.10;;;;;;5078919;28;19931;-54
2024/03/03 05:51:52;;;;;;;;;;;14.20;49.10;;;;;;5069502;28;19928;-60
2024/03/03 05:54:20;;;;;;;;;;;14.30;49.10;;;;;;5085661;28;19939;-60
2024/03/03 05:56:49;;;;;;;;;;;14.30;48.70;;;;;;5086874;28;19923;-59
2024/03/03 05:59:17;;;;;;;;;;;14.30;48.80;;;;;;5077293;28;19932;-58
2024/03/03 06:01:48;;;;;;;;;;;14.30;48.80;;;;;;5080381;28;20005;-59
2024/03/03 06:04:17;;;;;;;;;;;14.30;48.60;;;;;;5084846;28;19931;-61
2024/03/03 06:06:46;;;;;;;;;;;14.30;48.60;;;;;;5076155;28;20001;-59
2024/03/03 06:09:14;;;;;;;;;;;14.30;48.80;;;;;;5068190;28;19924;-60
2024/03/03 06:11:43;;;;;;;;;;;14.30;49.00;;;;;;5075164;28;20385;-61
2024/03/03 06:14:14;;;;;;;;;;;14.30;48.50;;;;;;5087692;28;19996;-59
2024/03/03 06:16:43;;;;;;;;;;;14.40;48.50;;;;;;5085568;28;19942;-58
2024/03/03 06:19:11;;;;;;;;;;;14.40;48.60;;;;;;5079696;28;19934;-57
2024/03/03 06:21:41;;;;;;;;;;;14.40;48.90;;;;;;5078919;28;19950;-59
2024/03/03 06:24:10;;;;;;;;;;;14.50;48.60;;;;;;5078925;28;19952;-59
2024/03/03 06:26:39;;;;;;;;;;;14.60;48.30;;;;;;5080298;28;20316;-59
2024/03/03 06:29:07;;;;;;;;;;;14.70;48.30;;;;;;5082514;28;19936;-60
2024/03/03 06:31:35;;;;;;;;;;;14.80;48.40;;;;;;5074272;28;19932;-59
2024/03/03 06:34:03;;;;;;;;;;;14.90;48.30;;;;;;5085383;28;20057;-60
2024/03/03 06:36:31;;;;;;;;;;;15.00;48.10;;;;;;5063907;28;20116;-64
2024/03/03 06:38:59;;;;;;;;;;;15.20;48.10;;;;;;5083936;28;20011;-63
2024/03/03 06:41:30;;;;;;;;;;;15.30;48.00;;;;;;5077416;27;19928;-61
2024/03/03 06:43:58;;;;;;;;;;;15.40;47.70;;;;;;5084955;28;20275;-62
2024/03/03 06:46:26;;;;;;;;;;;15.50;47.60;;;;;;5086004;28;19934;-66
2024/03/03 06:48:54;;;;;;;;;;;15.50;47.00;;;;;;5085982;28;20352;-62
2024/03/03 06:51:22;;;;;;;;;;;15.60;47.00;;;;;;5079176;28;19927;-61
2024/03/03 06:53:50;;;;;;;;;;;15.70;47.10;;;;;;5085872;28;20022;-65
2024/03/03 06:56:18;;;;;;;;;;;15.70;47.30;;;;;;5081682;28;19924;-62
2024/03/03 06:58:47;;;;;;;;;;;15.70;47.10;;;;;;5082651;28;19934;-64
2024/03/03 07:01:15;;;;;;;;;;;15.70;47.10;;;;;;5078268;28;19935;-62
2024/03/03 07:04:10;;;;;;;;;;;15.80;47.20;;;;;;5082995;28;19928;-63
2024/03/03 07:06:38;;;;;;;;;;;15.80;47.10;;;;;;5080108;28;20024;-61
2024/03/03 07:09:08;;;;;;;;;;;15.80;47.90;;;;;;5086543;28;19961;-63
2024/03/03 07:11:36;;;;;;;;;;;15.80;46.90;;;;;;5079604;28;19936;-62
2024/03/03 07:14:06;;;;;;;;;;;15.80;47.20;;;;;;5084861;28;20142;-61
2024/03/03 07:16:34;;;;;;;;;;;15.80;47.40;;;;;;5088014;28;19934;-63
2024/03/03 07:19:03;;;;;;;;;;;15.80;47.10;;;;;;5085306;28;19928;-62
2024/03/03 07:21:31;;;;;;;;;;;15.80;47.10;;;;;;5072573;27;19939;-67
2024/03/03 07:23:59;;;;;;;;;;;15.80;47.40;;;;;;5087431;27;20052;-67
2024/03/03 07:26:28;;;;;;;;;;;15.80;47.30;;;;;;5082436;27;19927;-66
2024/03/03 07:28:56;;;;;;;;;;;15.80;47.30;;;;;;5082440;28;19931;-66
2024/03/03 07:31:26;;;;;;;;;;;15.90;47.50;;;;;;5076355;27;19934;-63
2024/03/03 07:33:54;;;;;;;;;;;16.00;47.60;;;;;;5083713;28;19939;-64
2024/03/03 07:36:23;;;;;;;;;;;16.00;47.60;;;;;;5079508;28;19973;-65
2024/03/03 07:38:51;;;;;;;;;;;16.10;47.70;;;;;;5081348;28;19928;-66
2024/03/03 07:41:19;;;;;;;;;;;16.30;47.80;;;;;;5073640;28;19947;-61
2024/03/03 07:43:47;;;;;;;;;;;16.50;47.80;;;;;;5080600;28;20015;-59
2024/03/03 07:46:16;;;;;;;;;;;16.60;47.60;;;;;;5080452;28;19963;-61
2024/03/03 07:48:46;;;;;;;;;;;16.90;47.60;;;;;;5081723;28;19935;-64
2024/03/03 07:51:14;;;;;;;;;;;17.10;47.30;;;;;;5074592;28;19931;-61
2024/03/03 07:53:42;;;;;;;;;;;17.30;46.60;;;;;;5080553;28;19931;-61
2024/03/03 07:56:10;;;;;;;;;;;17.50;46.90;;;;;;5082919;28;19932;-64
2024/03/03 07:58:38;;;;;;;;;;;17.70;46.70;;;;;;5075647;28;19932;-66
2024/03/03 08:01:06;;;;;;;;;;;18.00;46.80;;;;;;5081850;28;19928;-60
2024/03/03 08:03:35;;;;;;;;;;;18.20;46.50;;;;;;5071882;28;20018;-60
2024/03/03 08:06:05;;;;;;;;;;;18.30;46.20;;;;;;5078494;28;19928;-61
2024/03/03 08:08:33;;;;;;;;;;;18.50;46.20;;;;;;5081146;28;19997;-65
2024/03/03 08:11:01;;;;;;;;;;;18.70;45.70;;;;;;5076161;28;19931;-62
2024/03/03 08:13:29;;;;;;;;;;;18.80;45.50;;;;;;5067721;28;20429;-63
2024/03/03 08:15:57;;;;;;;;;;;19.00;45.70;;;;;;5075154;28;20373;-62
2024/03/03 08:18:25;;;;;;;;;;;19.50;46.10;;;;;;5073109;28;19928;-67
2024/03/03 08:20:54;;;;;;;;;;;20.40;46.40;;;;;;5073695;27;19985;-65
2024/03/03 08:23:23;;;;;;;;;;;21.80;46.50;;;;;;5062476;28;19932;-61
2024/03/03 08:25:52;;;;;;;;;;;23.30;46.20;;;;;;5073533;28;20014;-61
2024/03/03 08:28:20;;;;;;;;;;;24.90;45.00;;;;;;5075009;28;19935;-62
2024/03/03 08:30:51;;;;;;;;;;;26.30;44.60;;;;;;5068343;28;19969;-60
2024/03/03 08:33:21;;;;;;;;;;;27.50;43.90;;;;;;5064007;28;20301;-62
2024/03/03 08:35:49;;;;;;;;;;;28.20;42.70;;;;;;5073229;28;19928;-61
2024/03/03 08:38:18;;;;;;;;;;;28.80;41.90;;;;;;5070089;28;19932;-61
2024/03/03 08:40:49;;;;;;;;;;;28.80;40.60;;;;;;5075007;28;20441;-60
2024/03/03 08:43:19;;;;;;;;;;;28.60;40.40;;;;;;5065774;28;20046;-62
2024/03/03 08:45:47;;;;;;;;;;;28.60;40.70;;;;;;5072198;28;19957;-61
2024/03/03 08:48:15;;;;;;;;;;;29.10;41.70;;;;;;5066074;28;19932;-62
2024/03/03 08:50:45;;;;;;;;;;;29.90;41.30;;;;;;5070526;28;19934;-61
2024/03/03 08:53:13;;;;;;;;;;;30.50;41.30;;;;;;5066920;28;19928;-54
2024/03/03 08:55:41;;;;;;;;;;;31.10;40.90;;;;;;5069440;28;19938;-60
2024/03/03 08:58:11;;;;;;;;;;;31.70;40.60;;;;;;5071332;28;19932;-58
2024/03/03 09:00:39;;;;;;;;;;;32.20;40.50;;;;;;5071331;28;19936;-63
2024/03/03 09:03:07;;;;;;;;;;;33.00;41.00;;;;;;5067601;28;19989;-61
2024/03/03 09:05:36;;;;;;;;;;;33.80;41.00;;;;;;5066797;28;21494;-62
2024/03/03 09:08:04;;;;;;;;;;;34.40;40.10;;;;;;5074056;28;19939;-62
2024/03/03 09:10:32;;;;;;;;;;;34.50;39.30;;;;;;5073245;28;20457;-61
2024/03/03 09:13:01;;;;;;;;;;;34.80;39.80;;;;;;5069594;28;19932;-62
2024/03/03 09:15:30;;;;;;;;;;;35.30;40.10;;;;;;5063018;28;19928;-61
2024/03/03 09:17:59;;;;;;;;;;;35.70;39.70;;;;;;5061933;28;19925;-61
2024/03/03 09:20:27;;;;;;;;;;;36.10;39.70;;;;;;5072312;28;19932;-60
2024/03/03 09:22:55;;;;;;;;;;;36.50;39.90;;;;;;5072093;28;20012;-59
2024/03/03 09:25:23;;;;;;;;;;;36.90;39.80;;;;;;5057588;28;19942;-62
2024/03/03 09:27:52;;;;;;;;;;;37.10;38.70;;;;;;5077886;28;19932;-63
2024/03/03 09:30:20;;;;;;;;;;;36.80;38.00;;;;;;5080765;28;19944;-62
2024/03/03 09:32:52;;;;;;;;;;;36.30;36.90;;;;;;5074775;28;19928;-62
2024/03/03 09:35:20;;;;;;;;;;;35.90;37.20;;;;;;5070672;28;20378;-61
2024/03/03 09:37:49;;;;;;;;;;;35.60;37.30;;;;;;5077670;28;19961;-61
2024/03/03 09:40:18;;;;;;;;;;;35.40;37.60;;;;;;5072969;28;20305;-60
2024/03/03 09:42:49;;;;;;;;;;;35.00;37.00;;;;;;5077844;28;20392;-61
2024/03/03 09:45:19;;;;;;;;;;;34.70;38.00;;;;;;5072253;28;20513;-62
2024/03/03 09:47:50;;;;;;;;;;;34.80;37.40;;;;;;5080448;28;19993;-58
2024/03/03 09:50:21;;;;;;;;;;;34.80;37.00;;;;;;5074941;28;19928;-64
2024/03/03 09:52:52;;;;;;;;;;;34.90;37.30;;;;;;5075903;28;20071;-65
2024/03/03 09:55:20;;;;;;;;;;;34.80;36.00;;;;;;5073187;28;20370;-64
2024/03/03 09:57:49;;;;;;;;;;;34.60;36.00;;;;;;5078629;28;20074;-61
2024/03/03 10:00:17;;;;;;;;;;;34.60;36.30;;;;;;5076397;28;19935;-60
2024/03/03 10:02:47;;;;;;;;;;;34.50;35.10;;;;;;5079530;28;19927;-61
2024/03/03 10:05:16;;;;;;;;;;;34.00;35.00;;;;;;5071518;28;19935;-62
2024/03/03 10:07:48;;;;;;;;;;;33.40;35.00;;;;;;5074534;28;20026;-61
2024/03/03 10:10:18;;;;;;;;;;;33.20;35.70;;;;;;5078415;28;20389;-60
2024/03/03 10:12:47;;;;;;;;;;;33.50;36.40;;;;;;5078787;28;20025;-59
2024/03/03 10:15:15;;;;;;;;;;;33.60;35.40;;;;;;5071241;28;20077;-61
2024/03/03 10:17:44;;;;;;;;;;;33.30;34.70;;;;;;5080929;28;19997;-60
2024/03/03 10:20:12;;;;;;;;;;;32.90;35.10;;;;;;5084613;28;19932;-62
2024/03/03 10:22:41;;;;;;;;;;;32.40;34.90;;;;;;5080445;28;19939;-59
2024/03/03 10:25:11;;;;;;;;;;;31.90;35.60;;;;;;5082099;28;19935;-60
2024/03/03 10:27:42;;;;;;;;;;;31.20;34.70;;;;;;5079252;28;20400;-60
2024/03/03 10:30:12;;;;;;;;;;;30.40;34.90;;;;;;5081352;28;19932;-59
2024/03/03 10:32:40;;;;;;;;;;;30.00;35.70;;;;;;5076860;28;20057;-61
2024/03/03 10:35:09;;;;;;;;;;;29.60;36.00;;;;;;5079905;28;19928;-65
2024/03/03 10:37:47;;;;;;;;;;;29.30;35.20;;;;;;5057329;28;19928;-63
2024/03/03 10:40:17;;;;;;;;;;;29.50;35.90;;;;;;5073779;28;20018;-67
2024/03/03 10:42:45;;;;;;;;;;;30.50;35.90;;;;;;5075308;28;20436;-62
2024/03/03 10:45:15;;;;;;;;;;;31.20;34.20;;;;;;5072881;27;20363;-61
2024/03/03 10:47:44;;;;;;;;;;;31.60;33.40;;;;;;5075752;27;20043;-62
2024/03/03 10:50:15;;;;;;;;;;;31.90;33.00;;;;;;5072022;28;20546;-61
2024/03/03 10:52:44;;;;;;;;;;;32.30;33.10;;;;;;5081076;28;20043;-58
2024/03/03 10:55:14;;;;;;;;;;;32.50;32.50;;;;;;5080282;28;19924;-60
2024/03/03 10:57:48;;;;;;;;;;;32.20;32.10;;;;;;5069197;28;19989;-61
2024/03/03 11:00:22;;;;;;;;;;;31.60;31.60;;;;;;5081168;28;19957;-65
2024/03/03 11:02:51;;;;;;;;;;;30.50;31.60;;;;;;5077442;28;20723;-59
2024/03/03 11:05:20;;;;;;;;;;;29.60;32.70;;;;;;5072730;28;19928;-59
2024/03/03 11:07:49;;;;;;;;;;;29.60;33.10;;;;;;5081294;28;19928;-60
2024/03/03 11:10:19;;;;;;;;;;;29.10;32.80;;;;;;5074266;28;19954;-60
2024/03/03 11:12:50;;;;;;;;;;;28.50;33.20;;;;;;5078246;28;19996;-62
2024/03/03 11:15:20;;;;;;;;;;;28.50;34.40;;;;;;5071526;27;19931;-60
2024/03/03 11:17:51;;;;;;;;;;;28.90;33.80;;;;;;5083454;28;20135;-59
2024/03/03 11:20:22;;;;;;;;;;;28.60;33.10;;;;;;5075192;28;19928;-62
2024/03/03 11:22:56;;;;;;;;;;;28.20;33.80;;;;;;5078910;28;19935;-60
2024/03/03 11:25:27;;;;;;;;;;;28.10;34.20;;;;;;5065568;28;19932;-64
2024/03/03 11:27:59;;;;;;;;;;;28.10;34.60;;;;;;5075230;28;19928;-60
2024/03/03 11:30:28;;;;;;;;;;;27.80;34.60;;;;;;5075306;27;20007;-60
2024/03/03 11:32:57;;;;;;;;;;;27.30;34.60;;;;;;5075427;28;20374;-60
2024/03/03 11:35:28;;;;;;;;;;;26.90;35.10;;;;;;5066437;28;19935;-65
2024/03/03 11:37:56;;;;;;;;;;;26.50;35.00;;;;;;5075407;27;19936;-63
2024/03/03 11:40:28;;;;;;;;;;;26.00;35.40;;;;;;5053966;28;19988;-61
2024/03/03 11:43:00;;;;;;;;;;;25.60;35.10;;;;;;5072222;27;19947;-64
2024/03/03 11:45:42;;;;;;;;;;;25.30;34.90;;;;;;5044668;28;20728;-60
2024/03/03 11:48:11;;;;;;;;;;;25.10;35.10;;;;;;5071147;28;19932;-62
2024/03/03 11:50:39;;;;;;;;;;;24.90;35.60;;;;;;5073144;28;19927;-63
2024/03/03 11:53:07;;;;;;;;;;;24.80;35.90;;;;;;5072146;28;19932;-60
2024/03/03 11:55:39;;;;;;;;;;;24.90;36.10;;;;;;5074991;28;20646;-59
2024/03/03 11:58:09;;;;;;;;;;;24.90;35.40;;;;;;5072617;28;19932;-60
2024/03/03 12:00:37;;;;;;;;;;;24.90;35.70;;;;;;5075870;28;19943;-62
2024/03/03 12:03:07;;;;;;;;;;;24.90;35.10;;;;;;5065426;28;20022;-64
2024/03/03 12:05:35;;;;;;;;;;;24.90;35.30;;;;;;5062410;28;20467;-58
2024/03/03 12:08:05;;;;;;;;;;;24.90;35.50;;;;;;5075613;28;19940;-62
2024/03/03 12:10:33;;;;;;;;;;;24.90;35.70;;;;;;5073329;28;19959;-59
2024/03/03 12:13:02;;;;;;;;;;;24.90;35.50;;;;;;5072330;28;20625;-61
2024/03/03 12:15:32;;;;;;;;;;;24.90;35.00;;;;;;5067544;27;20413;-60
2024/03/03 12:18:04;;;;;;;;;;;24.80;34.10;;;;;;5072385;27;19928;-61
2024/03/03 12:20:32;;;;;;;;;;;24.70;34.40;;;;;;5070657;27;19927;-61
2024/03/03 12:23:04;;;;;;;;;;;24.60;34.60;;;;;;5072626;28;19932;-58
2024/03/03 12:25:32;;;;;;;;;;;24.60;34.60;;;;;;5067546;28;20693;-61
2024/03/03 12:28:01;;;;;;;;;;;24.50;34.40;;;;;;5071038;28;19935;-59
2024/03/03 12:30:36;;;;;;;;;;;24.40;33.40;;;;;;5072104;28;20123;-59
2024/03/03 12:33:05;;;;;;;;;;;24.30;34.10;;;;;;5074030;28;20019;-60
2024/03/03 12:35:36;;;;;;;;;;;24.40;34.70;;;;;;5079607;28;20120;-60
2024/03/03 12:38:04;;;;;;;;;;;24.50;34.50;;;;;;5083183;28;20394;-60
2024/03/03 12:40:33;;;;;;;;;;;24.70;34.70;;;;;;5081399;27;20413;-61
2024/03/03 12:43:02;;;;;;;;;;;24.80;34.70;;;;;;5072891;28;19927;-61
2024/03/03 12:45:32;;;;;;;;;;;24.80;35.20;;;;;;5062546;28;20079;-61
2024/03/03 12:48:06;;;;;;;;;;;24.90;35.10;;;;;;5070321;28;19932;-61
2024/03/03 12:50:34;;;;;;;;;;;25.00;34.90;;;;;;5067728;28;19932;-62
2024/03/03 12:53:02;;;;;;;;;;;25.00;34.60;;;;;;5064241;28;19973;-59
2024/03/03 12:55:30;;;;;;;;;;;24.90;34.40;;;;;;5066539;28;19932;-61
2024/03/03 12:57:59;;;;;;;;;;;24.80;34.30;;;;;;5070165;28;19924;-60
2024/03/03 13:00:27;;;;;;;;;;;24.60;33.40;;;;;;5053745;28;19939;-60
2024/03/03 13:02:56;;;;;;;;;;;24.40;33.60;;;;;;5073897;28;20470;-64
2024/03/03 13:05:27;;;;;;;;;;;24.10;33.40;;;;;;5063958;28;19928;-59
2024/03/03 13:07:59;;;;;;;;;;;24.00;34.00;;;;;;5074348;28;20394;-62
2024/03/03 13:10:28;;;;;;;;;;;23.90;34.20;;;;;;5062620;28;20340;-60
2024/03/03 13:12:56;;;;;;;;;;;23.80;34.10;;;;;;5076335;28;20390;-60
2024/03/03 13:15:25;;;;;;;;;;;23.70;33.80;;;;;;5069184;28;19963;-58
2024/03/03 13:18:05;;;;;;;;;;;23.60;33.50;;;;;;5069909;28;19963;-61
2024/03/03 13:20:35;;;;;;;;;;;23.50;33.90;;;;;;5057733;28;19925;-61
2024/03/03 13:23:11;;;;;;;;;;;23.40;34.30;;;;;;5072757;28;19928;-60
2024/03/03 13:25:41;;;;;;;;;;;23.40;34.30;;;;;;5068977;28;20018;-61
2024/03/03 13:28:12;;;;;;;;;;;23.40;34.60;;;;;;5072154;28;20509;-60
2024/03/03 13:30:40;;;;;;;;;;;23.40;33.50;;;;;;5072467;28;19935;-60
2024/03/03 13:33:09;;;;;;;;;;;23.40;33.60;;;;;;5072881;28;19939;-62
2024/03/03 13:35:39;;;;;;;;;;;23.40;33.20;;;;;;5061231;28;19934;-62
2024/03/03 13:38:07;;;;;;;;;;;23.40;33.80;;;;;;5068751;28;20414;-61
2024/03/03 13:40:36;;;;;;;;;;;23.50;34.10;;;;;;5073073;28;19932;-61
2024/03/03 13:43:04;;;;;;;;;;;23.50;33.00;;;;;;5074658;28;19927;-64
2024/03/03 13:45:32;;;;;;;;;;;23.50;33.50;;;;;;5062986;28;19924;-58
2024/03/03 13:48:09;;;;;;;;;;;23.50;34.00;;;;;;5071386;28;19953;-59
2024/03/03 13:50:39;;;;;;;;;;;23.60;33.50;;;;;;5074561;27;19932;-61
2024/03/03 13:53:08;;;;;;;;;;;23.60;33.40;;;;;;5073524;28;19936;-61
2024/03/03 13:55:36;;;;;;;;;;;23.50;33.20;;;;;;5072104;28;20729;-61
2024/03/03 13:58:05;;;;;;;;;;;23.50;33.00;;;;;;5071384;27;19939;-64
2024/03/03 14:00:34;;;;;;;;;;;23.50;33.60;;;;;;5078052;28;19950;-59
2024/03/03 14:03:04;;;;;;;;;;;23.50;33.40;;;;;;5074390;28;19931;-58
2024/03/03 14:05:34;;;;;;;;;;;23.50;33.00;;;;;;5066299;28;20972;-59
2024/03/03 14:08:04;;;;;;;;;;;23.50;33.40;;;;;;5076973;28;19951;-59
2024/03/03 14:10:33;;;;;;;;;;;23.40;33.60;;;;;;5073941;28;20279;-60
2024/03/03 14:13:02;;;;;;;;;;;23.40;33.70;;;;;;5069088;28;19935;-62
2024/03/03 14:15:33;;;;;;;;;;;23.30;33.50;;;;;;5075646;27;19928;-60
2024/03/03 14:18:01;;;;;;;;;;;23.30;34.50;;;;;;5085865;27;20018;-61
2024/03/03 14:20:30;;;;;;;;;;;23.30;33.80;;;;;;5084371;28;19958;-61
2024/03/03 14:22:58;;;;;;;;;;;23.40;34.30;;;;;;5088702;28;19976;-60
2024/03/03 14:25:28;;;;;;;;;;;23.50;34.40;;;;;;5083381;28;19932;-60